createdAt,value
2023-03-20T00:01:28.456Z,12.70
2023-03-20T00:03:56.536Z,12.70
2023-03-20T00:06:26.056Z,12.60
2023-03-20T00:08:54.752Z,12.60
2023-03-20T00:11:30.517Z,12.70
2023-03-20T00:14:00.729Z,12.60
2023-03-20T00:16:34.513Z,12.60
2023-03-20T00:19:03.276Z,12.70
2023-03-20T00:21:31.582Z,12.70
2023-03-20T00:23:58.807Z,12.70
2023-03-20T00:26:28.410Z,12.80
2023-03-20T00:28:56.452Z,12.70
2023-03-20T00:31:37.781Z,12.70
2023-03-20T00:34:14.279Z,12.70
2023-03-20T00:36:41.289Z,12.60
2023-03-20T00:39:10.084Z,12.60
2023-03-20T00:41:39.648Z,12.50
2023-03-20T00:44:20.258Z,12.50
2023-03-20T00:46:51.487Z,12.50
2023-03-20T00:49:20.893Z,12.40
2023-03-20T00:51:48.013Z,12.40
2023-03-20T00:54:17.296Z,12.30
2023-03-20T00:57:09.395Z,12.40
2023-03-20T00:59:40.411Z,12.40
2023-03-20T01:02:07.726Z,12.40
2023-03-20T01:04:42.315Z,12.30
2023-03-20T01:07:15.204Z,12.30
2023-03-20T01:09:42.506Z,12.30
2023-03-20T01:12:12.127Z,12.30
2023-03-20T01:14:38.951Z,12.30
2023-03-20T01:17:06.490Z,12.30
2023-03-20T01:19:33.300Z,12.20
2023-03-20T01:22:00.518Z,12.10
2023-03-20T01:24:27.361Z,12.10
2023-03-20T01:26:54.814Z,12.00
2023-03-20T01:29:27.683Z,11.90
2023-03-20T01:31:55.315Z,11.80
2023-03-20T01:34:23.519Z,11.80
2023-03-20T01:36:56.205Z,11.90
2023-03-20T01:39:29.032Z,11.90
2023-03-20T01:41:55.941Z,11.90
2023-03-20T01:44:27.931Z,12.00
2023-03-20T01:46:55.511Z,11.90
2023-03-20T01:49:22.271Z,11.90
2023-03-20T01:51:50.890Z,11.90
2023-03-20T01:54:24.039Z,11.90
2023-03-20T01:57:05.052Z,11.70
2023-03-20T01:59:36.637Z,11.80
2023-03-20T02:02:05.840Z,11.80
2023-03-20T02:04:41.478Z,11.80
2023-03-20T02:07:10.300Z,11.80
2023-03-20T02:09:37.573Z,11.70
2023-03-20T02:12:05.993Z,11.60
2023-03-20T02:14:33.195Z,11.70
2023-03-20T02:17:00.155Z,11.70
2023-03-20T02:19:50.798Z,11.70
2023-03-20T02:22:32.790Z,11.70
2023-03-20T02:25:15.568Z,11.70
2023-03-20T02:27:54.840Z,11.70
2023-03-20T02:30:43.571Z,11.60
2023-03-20T02:33:37.740Z,11.60
2023-03-20T02:36:31.470Z,11.60
2023-03-20T02:39:07.972Z,11.60
2023-03-20T02:41:54.467Z,11.70
2023-03-20T02:45:08.210Z,11.70
2023-03-20T02:47:44.361Z,11.70
2023-03-20T02:50:49.425Z,11.60
2023-03-20T02:53:19.782Z,11.70
2023-03-20T02:56:00.882Z,11.70
2023-03-20T02:58:46.903Z,11.70
2023-03-20T03:01:30.920Z,11.80
2023-03-20T03:04:08.844Z,11.80
2023-03-20T03:06:42.384Z,11.80
2023-03-20T03:09:22.936Z,11.80
2023-03-20T03:11:54.446Z,11.80
2023-03-20T03:14:37.143Z,11.70
2023-03-20T03:17:07.463Z,11.50
2023-03-20T03:19:41.748Z,11.50
2023-03-20T03:22:09.071Z,11.40
2023-03-20T03:24:45.354Z,11.40
2023-03-20T03:27:34.475Z,11.40
2023-03-20T03:30:28.639Z,11.40
2023-03-20T03:33:18.013Z,11.40
2023-03-20T03:35:46.484Z,11.20
2023-03-20T03:38:54.519Z,11.20
2023-03-20T03:41:40.266Z,11.20
2023-03-20T03:44:11.818Z,11.20
2023-03-20T03:46:54.922Z,11.10
2023-03-20T03:49:31.028Z,11.00
2023-03-20T03:52:02.862Z,11.00
2023-03-20T03:54:56.244Z,10.90
2023-03-20T03:57:37.885Z,11.00
2023-03-20T04:00:07.116Z,11.00
2023-03-20T04:02:35.360Z,11.00
2023-03-20T04:05:03.455Z,10.90
2023-03-20T04:07:30.929Z,10.90
2023-03-20T04:09:57.747Z,10.90
2023-03-20T04:12:39.521Z,10.80
2023-03-20T04:15:07.788Z,10.70
2023-03-20T04:17:35.416Z,10.60
2023-03-20T04:20:03.036Z,10.50
2023-03-20T04:22:30.088Z,10.50
2023-03-20T04:24:57.130Z,10.40
2023-03-20T04:27:24.337Z,10.50
2023-03-20T04:29:51.529Z,10.40
2023-03-20T04:32:18.734Z,10.40
2023-03-20T04:34:45.822Z,10.50
2023-03-20T04:37:13.313Z,10.60
2023-03-20T04:39:42.385Z,10.50
2023-03-20T04:42:09.556Z,10.50
2023-03-20T04:44:36.410Z,10.60
2023-03-20T04:47:03.261Z,10.60
2023-03-20T04:49:30.160Z,10.60
2023-03-20T04:51:57.492Z,10.70
2023-03-20T04:54:25.329Z,10.70
2023-03-20T04:56:52.166Z,10.70
2023-03-20T04:59:19.087Z,10.80
2023-03-20T05:01:46.373Z,10.70
2023-03-20T05:04:13.308Z,10.60
2023-03-20T05:06:40.367Z,10.60
2023-03-20T05:09:07.261Z,10.60
2023-03-20T05:11:34.144Z,10.60
2023-03-20T05:14:01.046Z,10.50
2023-03-20T05:16:28.352Z,10.40
2023-03-20T05:18:55.870Z,10.40
2023-03-20T05:21:23.156Z,10.30
2023-03-20T05:23:50.349Z,10.30
2023-03-20T05:26:17.519Z,10.30
2023-03-20T05:28:44.784Z,10.30
2023-03-20T05:31:12.009Z,10.40
2023-03-20T05:33:39.158Z,10.50
2023-03-20T05:36:07.461Z,10.50
2023-03-20T05:38:34.349Z,10.60
2023-03-20T05:41:01.694Z,10.70
2023-03-20T05:43:29.262Z,10.80
2023-03-20T05:45:59.426Z,10.90
2023-03-20T05:48:26.443Z,11.00
2023-03-20T05:50:53.347Z,11.10
2023-03-20T05:53:21.450Z,11.20
2023-03-20T05:55:48.263Z,11.30
2023-03-20T05:58:15.079Z,11.40
2023-03-20T06:00:41.940Z,11.60
2023-03-20T06:03:09.254Z,11.60
2023-03-20T06:05:36.948Z,11.50
2023-03-20T06:08:04.700Z,11.60
2023-03-20T06:10:31.911Z,11.80
2023-03-20T06:13:01.089Z,11.80
2023-03-20T06:15:28.980Z,11.80
2023-03-20T06:17:56.575Z,12.10
2023-03-20T06:20:24.286Z,12.10
2023-03-20T06:22:51.826Z,12.10
2023-03-20T06:25:19.668Z,12.30
2023-03-20T06:27:47.878Z,12.50
2023-03-20T06:30:16.571Z,12.70
2023-03-20T06:32:43.685Z,12.70
2023-03-20T06:35:12.033Z,12.90
2023-03-20T06:37:39.096Z,13.10
2023-03-20T06:40:06.835Z,13.20
2023-03-20T06:42:33.770Z,13.40
2023-03-20T06:45:00.753Z,13.50
2023-03-20T06:47:27.609Z,13.60
2023-03-20T06:49:54.519Z,13.70
2023-03-20T06:52:22.597Z,13.80
2023-03-20T06:54:51.307Z,13.90
2023-03-20T06:57:18.555Z,14.10
2023-03-20T06:59:45.557Z,14.20
2023-03-20T07:02:12.486Z,14.50
2023-03-20T07:04:40.857Z,14.70
2023-03-20T07:07:07.773Z,14.90
2023-03-20T07:09:35.127Z,15.10
2023-03-20T07:12:02.449Z,15.10
2023-03-20T07:14:29.237Z,15.30
2023-03-20T07:16:56.624Z,15.40
2023-03-20T07:19:23.758Z,15.60
2023-03-20T07:21:55.628Z,15.70
2023-03-20T07:24:23.284Z,15.90
2023-03-20T07:26:50.613Z,16.10
2023-03-20T07:29:17.357Z,16.30
2023-03-20T07:31:44.237Z,16.30
2023-03-20T07:34:12.706Z,16.20
2023-03-20T07:36:39.523Z,16.20
2023-03-20T07:39:06.989Z,16.40
2023-03-20T07:41:34.029Z,16.50
2023-03-20T07:44:00.845Z,16.60
2023-03-20T07:46:27.815Z,16.70
2023-03-20T07:48:56.639Z,16.80
2023-03-20T07:51:24.470Z,16.90
2023-03-20T07:53:51.585Z,17.00
2023-03-20T07:56:18.422Z,17.20
2023-03-20T07:58:45.571Z,17.20
2023-03-20T08:01:12.370Z,17.40
2023-03-20T08:03:39.731Z,17.40
2023-03-20T08:06:09.583Z,17.50
2023-03-20T08:08:36.736Z,17.70
2023-03-20T08:11:03.843Z,17.90
2023-03-20T08:13:30.760Z,18.00
2023-03-20T08:15:58.123Z,18.10
2023-03-20T08:18:25.221Z,18.00
2023-03-20T08:20:52.508Z,18.00
2023-03-20T08:23:20.792Z,18.10
2023-03-20T08:25:49.765Z,18.20
2023-03-20T08:28:17.279Z,18.40
2023-03-20T08:30:44.361Z,18.50
2023-03-20T08:33:11.952Z,18.50
2023-03-20T08:35:38.954Z,18.40
2023-03-20T08:38:06.289Z,18.50
2023-03-20T08:40:33.302Z,18.50
2023-03-20T08:43:00.641Z,18.60
2023-03-20T08:45:27.492Z,18.60
2023-03-20T08:47:55.091Z,18.50
2023-03-20T08:50:22.062Z,18.40
2023-03-20T08:52:48.853Z,18.40
2023-03-20T08:55:16.891Z,18.50
2023-03-20T08:57:46.901Z,18.50
2023-03-20T09:00:15.779Z,18.50
2023-03-20T09:02:43.766Z,18.70
2023-03-20T09:05:11.349Z,18.80
2023-03-20T09:07:38.326Z,18.90
2023-03-20T09:10:06.117Z,19.00
2023-03-20T09:12:33.596Z,19.10
2023-03-20T09:15:01.331Z,19.30
2023-03-20T09:17:28.290Z,19.50
2023-03-20T09:19:55.575Z,19.60
2023-03-20T09:22:22.413Z,19.70
2023-03-20T09:24:49.307Z,19.90
2023-03-20T09:27:16.340Z,20.00
2023-03-20T09:29:43.663Z,20.10
2023-03-20T09:32:15.113Z,20.20
2023-03-20T09:34:41.996Z,20.30
2023-03-20T09:37:09.025Z,20.20
2023-03-20T09:39:35.981Z,20.30
2023-03-20T09:42:27.054Z,20.40
2023-03-20T09:45:12.075Z,20.60
2023-03-20T09:47:58.398Z,20.60
2023-03-20T09:50:46.510Z,20.50
2023-03-20T09:53:30.806Z,20.60
2023-03-20T09:55:58.866Z,20.90
2023-03-20T09:58:35.964Z,21.00
2023-03-20T10:01:06.751Z,21.40
2023-03-20T10:03:52.674Z,21.80
2023-03-20T10:06:19.472Z,22.20
2023-03-20T10:08:48.749Z,22.20
2023-03-20T10:11:40.590Z,22.30
2023-03-20T10:14:18.717Z,21.90
2023-03-20T10:16:52.981Z,22.00
2023-03-20T10:19:44.606Z,22.20
2023-03-20T10:22:34.536Z,22.60
2023-03-20T10:25:08.921Z,23.00
2023-03-20T10:28:20.439Z,23.50
2023-03-20T10:31:12.953Z,23.90
2023-03-20T10:33:52.946Z,24.10
2023-03-20T10:36:39.142Z,24.20
2023-03-20T10:39:46.289Z,24.50
2023-03-20T10:42:30.121Z,24.70
2023-03-20T10:45:04.699Z,24.70
2023-03-20T10:47:38.597Z,24.60
2023-03-20T10:50:11.898Z,25.20
2023-03-20T10:52:40.723Z,25.80
2023-03-20T10:55:22.198Z,26.60
2023-03-20T10:58:01.929Z,26.50
2023-03-20T11:00:29.501Z,26.60
2023-03-20T11:02:56.646Z,27.20
2023-03-20T11:05:34.236Z,27.00
2023-03-20T11:08:26.115Z,27.00
2023-03-20T11:11:18.045Z,27.30
2023-03-20T11:13:45.438Z,27.80
2023-03-20T11:16:21.532Z,28.70
2023-03-20T11:18:50.716Z,28.80
2023-03-20T11:21:21.815Z,28.70
2023-03-20T11:23:49.956Z,28.40
2023-03-20T11:26:34.444Z,28.10
2023-03-20T11:29:01.705Z,28.00
2023-03-20T11:31:40.793Z,28.50
2023-03-20T11:34:07.607Z,29.00
2023-03-20T11:36:36.847Z,29.20
2023-03-20T11:39:15.428Z,29.30
2023-03-20T11:41:54.161Z,29.50
2023-03-20T11:44:31.009Z,29.80
2023-03-20T11:47:24.550Z,30.00
2023-03-20T11:49:57.558Z,30.00
2023-03-20T11:52:39.806Z,30.10
2023-03-20T11:55:26.133Z,29.50
2023-03-20T11:58:00.845Z,29.40
2023-03-20T12:00:38.664Z,29.20
2023-03-20T12:03:45.011Z,28.80
2023-03-20T12:06:56.299Z,28.90
2023-03-20T12:09:40.593Z,28.50
2023-03-20T12:12:21.247Z,28.30
2023-03-20T12:14:57.123Z,27.90
2023-03-20T12:17:33.556Z,28.00
2023-03-20T12:20:06.872Z,27.70
2023-03-20T12:22:46.656Z,27.70
2023-03-20T12:25:26.403Z,27.00
2023-03-20T12:28:13.675Z,26.80
2023-03-20T12:30:59.416Z,26.90
2023-03-20T12:33:46.073Z,27.10
2023-03-20T12:36:16.710Z,26.90
2023-03-20T12:38:45.987Z,26.80
2023-03-20T12:41:34.756Z,26.70
2023-03-20T12:44:25.961Z,26.50
2023-03-20T12:47:33.106Z,26.50
2023-03-20T12:50:24.064Z,26.70
2023-03-20T12:53:28.581Z,26.50
2023-03-20T12:56:26.548Z,26.20
2023-03-20T12:59:02.953Z,26.00
2023-03-20T13:01:47.390Z,25.70
2023-03-20T13:04:23.056Z,25.70
2023-03-20T13:07:03.721Z,25.40
2023-03-20T13:09:57.418Z,25.10
2023-03-20T13:12:36.332Z,24.90
2023-03-20T13:15:14.815Z,24.80
2023-03-20T13:18:08.254Z,24.60
2023-03-20T13:20:51.109Z,24.50
2023-03-20T13:23:17.877Z,24.20
2023-03-20T13:26:22.469Z,23.70
2023-03-20T13:29:11.183Z,23.30
2023-03-20T13:31:43.791Z,22.70
2023-03-20T13:34:39.224Z,22.40
2023-03-20T13:37:25.864Z,22.00
2023-03-20T13:40:11.576Z,21.80
2023-03-20T13:42:54.228Z,21.60
2023-03-20T13:45:43.470Z,21.50
2023-03-20T13:48:42.850Z,21.70
2023-03-20T13:51:18.906Z,21.70
2023-03-20T13:54:16.634Z,21.40
2023-03-20T13:57:02.388Z,21.20
2023-03-20T13:59:44.697Z,21.00
2023-03-20T14:02:17.913Z,20.80
2023-03-20T14:04:46.576Z,20.60
2023-03-20T14:07:36.386Z,21.30
2023-03-20T14:10:21.663Z,20.40
2023-03-20T14:12:56.159Z,19.90
2023-03-20T14:15:27.897Z,19.60
2023-03-20T14:17:54.894Z,19.60
2023-03-20T14:20:32.080Z,19.50
2023-03-20T14:22:59.175Z,19.30
2023-03-20T14:25:40.607Z,19.30
2023-03-20T14:28:10.863Z,19.10
2023-03-20T14:30:46.644Z,19.00
2023-03-20T14:33:16.759Z,18.90
2023-03-20T14:36:08.788Z,18.80
2023-03-20T14:38:56.909Z,18.70
2023-03-20T14:41:30.482Z,18.60
2023-03-20T14:44:23.616Z,18.30
2023-03-20T14:46:59.724Z,18.20
2023-03-20T14:49:55.891Z,18.10
2023-03-20T14:52:35.881Z,18.10
2023-03-20T14:55:17.729Z,18.10
2023-03-20T14:57:55.941Z,18.00
2023-03-20T15:00:25.353Z,18.10
2023-03-20T15:02:57.344Z,18.00
2023-03-20T15:05:31.483Z,18.10
2023-03-20T15:08:23.499Z,18.00
2023-03-20T15:10:55.270Z,17.90
2023-03-20T15:13:24.857Z,17.90
2023-03-20T15:15:59.627Z,17.70
2023-03-20T15:18:28.032Z,17.60
2023-03-20T15:20:58.635Z,17.50
2023-03-20T15:23:26.335Z,17.50
2023-03-20T15:25:53.772Z,17.50
2023-03-20T15:28:24.383Z,17.50
2023-03-20T15:30:55.657Z,17.50
2023-03-20T15:33:35.350Z,17.40
2023-03-20T15:36:17.216Z,17.30
2023-03-20T15:38:45.115Z,17.30
2023-03-20T15:41:47.948Z,17.40
2023-03-20T15:44:26.100Z,17.40
2023-03-20T15:47:03.792Z,17.50
2023-03-20T15:49:33.870Z,17.40
2023-03-20T15:52:05.910Z,17.30
2023-03-20T15:54:35.158Z,17.20
2023-03-20T15:57:02.928Z,17.30
2023-03-20T15:59:32.804Z,17.30
2023-03-20T16:02:01.068Z,17.30
2023-03-20T16:04:28.739Z,17.30
2023-03-20T16:07:00.477Z,17.20
2023-03-20T16:09:28.365Z,17.10
2023-03-20T16:12:03.398Z,17.10
2023-03-20T16:14:32.877Z,17.10
2023-03-20T16:17:06.643Z,17.00
2023-03-20T16:19:34.050Z,17.10
2023-03-20T16:22:05.280Z,17.00
2023-03-20T16:24:38.357Z,17.00
2023-03-20T16:27:15.406Z,16.80
2023-03-20T16:29:45.312Z,16.80
2023-03-20T16:32:36.093Z,16.80
2023-03-20T16:35:12.852Z,16.70
2023-03-20T16:37:48.870Z,16.60
2023-03-20T16:40:33.016Z,16.50
2023-03-20T16:43:14.520Z,16.50
2023-03-20T16:45:44.916Z,16.40
2023-03-20T16:48:11.715Z,16.30
2023-03-20T16:50:40.181Z,16.30
2023-03-20T16:53:16.400Z,16.30
2023-03-20T16:55:49.720Z,16.20
2023-03-20T16:58:27.769Z,16.20
2023-03-20T17:01:01.763Z,16.20
2023-03-20T17:03:48.187Z,16.20
2023-03-20T17:06:21.684Z,16.20
2023-03-20T17:08:53.342Z,16.20
2023-03-20T17:11:40.462Z,16.20
2023-03-20T17:14:07.681Z,16.30
2023-03-20T17:16:36.104Z,16.20
2023-03-20T17:19:15.354Z,16.10
2023-03-20T17:21:43.591Z,16.10
2023-03-20T17:24:11.390Z,15.90
2023-03-20T17:26:40.981Z,15.80
2023-03-20T17:29:10.065Z,15.70
2023-03-20T17:31:37.165Z,15.70
2023-03-20T17:34:04.109Z,15.70
2023-03-20T17:36:33.078Z,15.60
2023-03-20T17:39:00.401Z,15.50
2023-03-20T17:41:28.423Z,15.50
2023-03-20T17:43:58.236Z,15.40
2023-03-20T17:46:31.450Z,15.30
2023-03-20T17:49:13.034Z,15.20
2023-03-20T17:51:40.758Z,15.00
2023-03-20T17:54:08.011Z,14.90
2023-03-20T17:56:35.509Z,14.70
2023-03-20T17:59:03.620Z,14.50
2023-03-20T18:01:32.700Z,14.50
2023-03-20T18:03:59.658Z,14.40
2023-03-20T18:06:32.829Z,14.40
2023-03-20T18:09:01.801Z,14.40
2023-03-20T18:11:29.233Z,14.30
2023-03-20T18:13:56.472Z,14.20
2023-03-20T18:16:25.851Z,14.20
2023-03-20T18:18:53.135Z,14.20
2023-03-20T18:21:19.978Z,14.20
2023-03-20T18:23:47.015Z,14.20
2023-03-20T18:26:26.083Z,14.10
2023-03-20T18:28:54.305Z,14.10
2023-03-20T18:31:22.162Z,14.10
2023-03-20T18:33:53.045Z,14.20
2023-03-20T18:36:24.449Z,14.10
2023-03-20T18:38:52.601Z,14.10
2023-03-20T18:41:19.893Z,14.00
2023-03-20T18:43:46.773Z,14.10
2023-03-20T18:46:22.307Z,14.10
2023-03-20T18:48:52.066Z,14.10
2023-03-20T18:51:20.517Z,14.00
2023-03-20T18:53:47.799Z,14.00
2023-03-20T18:56:18.302Z,14.00
2023-03-20T18:58:46.279Z,14.10
2023-03-20T19:01:15.571Z,14.00
2023-03-20T19:03:44.062Z,14.10
2023-03-20T19:06:22.894Z,14.00
2023-03-20T19:08:50.793Z,14.00
2023-03-20T19:11:21.199Z,13.90
2023-03-20T19:13:52.645Z,13.80
2023-03-20T19:16:26.999Z,13.90
2023-03-20T19:18:55.284Z,13.80
2023-03-20T19:21:29.049Z,13.70
2023-03-20T19:23:58.170Z,13.70
2023-03-20T19:26:27.403Z,13.60
2023-03-20T19:28:56.672Z,13.60
2023-03-20T19:31:25.235Z,13.60
2023-03-20T19:33:52.453Z,13.60
2023-03-20T19:36:32.959Z,13.50
2023-03-20T19:39:01.735Z,13.40
2023-03-20T19:41:29.726Z,13.30
2023-03-20T19:43:57.330Z,13.20
2023-03-20T19:46:39.100Z,13.20
2023-03-20T19:49:17.894Z,13.30
2023-03-20T19:51:45.188Z,13.20
2023-03-20T19:54:12.040Z,13.20
2023-03-20T19:56:38.883Z,13.10
2023-03-20T19:59:06.328Z,13.10
2023-03-20T20:01:33.247Z,13.00
2023-03-20T20:04:00.225Z,13.00
2023-03-20T20:06:32.450Z,13.10
2023-03-20T20:09:01.010Z,13.20
2023-03-20T20:11:28.514Z,13.20
2023-03-20T20:14:14.532Z,13.30
2023-03-20T20:16:43.102Z,13.30
2023-03-20T20:19:10.508Z,13.40
2023-03-20T20:24:25.474Z,13.20
2023-03-20T20:27:11.668Z,13.10
2023-03-20T20:29:41.037Z,13.10
2023-03-20T20:32:08.054Z,12.90
2023-03-20T20:40:15.547Z,12.90
2023-03-20T20:42:54.104Z,12.90
2023-03-20T20:45:22.719Z,12.80
2023-03-20T20:47:50.960Z,12.80
2023-03-20T20:50:23.402Z,12.90
2023-03-20T20:52:51.189Z,12.90
2023-03-20T20:55:36.741Z,12.90
2023-03-20T20:58:05.772Z,12.90
2023-03-20T21:00:48.513Z,12.90
2023-03-20T21:03:17.192Z,12.80
2023-03-20T21:05:44.096Z,12.80
2023-03-20T21:08:12.175Z,12.90
2023-03-20T21:10:40.127Z,12.90
2023-03-20T21:13:08.414Z,12.90
2023-03-20T21:15:36.017Z,12.90
2023-03-20T21:18:04.148Z,12.80
2023-03-20T21:20:33.801Z,12.80
2023-03-20T21:23:01.237Z,12.80
2023-03-20T21:25:39.492Z,13.00
2023-03-20T21:28:08.117Z,12.90
2023-03-20T21:30:36.565Z,12.90
2023-03-20T21:33:04.108Z,12.80
2023-03-20T21:35:31.433Z,12.80
2023-03-20T21:38:55.461Z,12.80
2023-03-20T21:40:46.335Z,12.90
2023-03-20T21:43:14.523Z,12.90
2023-03-20T21:49:31.736Z,12.80
2023-03-20T21:57:34.945Z,12.90
2023-03-20T22:00:34.944Z,12.80
2023-03-20T22:02:28.139Z,12.90
2023-03-20T22:11:50.101Z,13.00
2023-03-20T22:25:25.516Z,13.10
2023-03-20T22:28:02.489Z,13.20
2023-03-20T22:31:05.458Z,13.30
2023-03-20T22:33:49.911Z,13.30
2023-03-20T22:36:25.638Z,13.20
2023-03-20T22:39:17.419Z,13.20
2023-03-20T22:42:12.359Z,13.20
2023-03-20T22:44:50.492Z,13.20
2023-03-20T22:46:58.603Z,13.30
2023-03-20T22:49:25.529Z,13.20
2023-03-20T22:54:41.451Z,13.20
2023-03-20T22:57:08.705Z,13.10
2023-03-20T22:59:35.675Z,13.10
2023-03-20T23:02:03.070Z,13.20
2023-03-20T23:04:30.667Z,13.30
2023-03-20T23:06:57.676Z,13.20
2023-03-20T23:09:24.471Z,13.30
2023-03-20T23:11:51.393Z,13.20
2023-03-20T23:14:21.631Z,13.20
2023-03-20T23:16:56.204Z,13.20
2023-03-20T23:19:23.227Z,13.20
2023-03-20T23:21:50.131Z,13.20
2023-03-20T23:24:16.990Z,13.20
2023-03-20T23:26:43.813Z,13.20
2023-03-20T23:29:10.623Z,13.10
2023-03-20T23:31:37.543Z,13.10
2023-03-20T23:34:04.454Z,13.00
2023-03-20T23:36:38.745Z,13.00
2023-03-20T23:39:08.268Z,13.10
2023-03-20T23:44:22.195Z,13.10
2023-03-20T23:46:49.211Z,13.10
2023-03-20T23:49:16.994Z,13.00
2023-03-20T23:51:44.623Z,13.00
2023-03-20T23:54:12.207Z,12.90
2023-03-20T23:56:39.524Z,12.80
2023-03-20T23:59:20.234Z,12.70
